Time;durP1;ratioP1;P1;durP2;ratioP2;P2;SDS_P1;SDS_P2;PMS_P1;PMS_P2;Temp;Humidity;BMP_temperature;BMP_pressure;BME280_temperature;BME280_humidity;BME280_pressure;Samples;Min_cycle;Max_cycle;Signal;HPM_P1;HPM_P2
2021/04/16 00:01:37;;;;;;;17.60;13.15;;;;;;;9.07;97.95;99222.13;1799928;79;21623;-42
2021/04/16 00:04:06;;;;;;;18.85;13.75;;;;;;;9.08;97.95;99225.20;1799281;79;21366;-43
2021/04/16 00:09:08;;;;;;;16.93;14.28;;;;;;;9.13;98.04;99213.25;1737830;78;22933;-42
2021/04/16 00:11:38;;;;;;;19.02;15.10;;;;;;;9.06;98.09;99217.22;1695534;82;21049;-43
2021/04/16 00:14:07;;;;;;;20.68;14.43;;;;;;;9.05;98.18;99215.45;1698011;82;21374;-42
2021/04/16 00:16:34;;;;;;;26.33;13.30;;;;;;;9.05;98.26;99218.63;1696033;82;21021;-43
2021/04/16 00:19:04;;;;;;;18.70;14.03;;;;;;;9.05;98.15;99215.94;1703296;82;21025;-43
2021/04/16 00:21:34;;;;;;;17.77;13.88;;;;;;;9.06;98.18;99219.05;1702305;82;21013;-42
2021/04/16 00:24:03;;;;;;;18.05;15.15;;;;;;;9.08;98.17;99219.82;1695340;82;21704;-42
2021/04/16 00:26:33;;;;;;;18.07;14.60;;;;;;;9.07;98.10;99214.05;1698297;82;21626;-41
2021/04/16 00:29:01;;;;;;;17.67;15.40;;;;;;;9.06;98.09;99217.70;1693720;82;21034;-42
2021/04/16 00:31:31;;;;;;;20.48;16.25;;;;;;;9.08;98.09;99222.52;1700445;82;21156;-42
2021/04/16 00:34:02;;;;;;;16.87;14.45;;;;;;;9.08;97.99;99217.13;1692452;82;21537;-42
2021/04/16 00:36:31;;;;;;;16.87;14.43;;;;;;;9.08;97.95;99218.00;1692310;82;21597;-41
2021/04/16 00:39:01;;;;;;;20.30;15.10;;;;;;;9.08;97.84;99211.75;1693360;82;21023;-43
2021/04/16 00:41:30;;;;;;;18.77;15.05;;;;;;;9.08;97.73;99212.62;1696301;82;21021;-43
2021/04/16 00:43:58;;;;;;;18.57;15.30;;;;;;;9.08;97.68;99214.44;1693939;82;21017;-41
2021/04/16 00:46:44;;;;;;;18.12;14.65;;;;;;;9.05;97.64;99211.90;1692496;82;21695;-42
2021/04/16 00:49:18;;;;;;;17.73;15.68;;;;;;;9.05;97.63;99209.20;1667278;82;21021;-42
2021/04/16 00:51:52;;;;;;;18.55;15.30;;;;;;;9.06;97.62;99216.36;1695545;82;21029;-51
2021/04/16 00:54:24;;;;;;;17.65;14.03;;;;;;;9.08;97.57;99203.69;1695140;82;21193;-41
2021/04/16 00:56:52;;;;;;;17.12;14.65;;;;;;;9.08;97.48;99215.79;1695427;82;21148;-41
2021/04/16 00:59:25;;;;;;;18.87;14.93;;;;;;;9.07;97.49;99219.44;1695021;82;20986;-40
2021/04/16 01:01:53;;;;;;;18.23;14.58;;;;;;;9.07;97.50;99221.64;1693201;82;21486;-42
2021/04/16 01:04:21;;;;;;;18.10;14.50;;;;;;;9.05;97.36;99212.77;1693082;82;22338;-42
2021/04/16 01:06:49;;;;;;;17.23;14.47;;;;;;;9.05;97.36;99212.77;1693879;82;21791;-42
2021/04/16 01:09:17;;;;;;;16.70;13.28;;;;;;;9.08;97.55;99218.48;1681898;83;20998;-41
2021/04/16 01:11:47;;;;;;;16.30;13.50;;;;;;;9.10;97.69;99213.88;1685208;83;21184;-41
2021/04/16 01:14:15;;;;;;;16.90;13.48;;;;;;;9.10;97.69;99213.88;1687645;83;21117;-43
2021/04/16 01:16:43;;;;;;;17.75;14.40;;;;;;;9.09;97.70;99218.86;1684471;83;21380;-41
2021/04/16 01:19:43;;;;;;;15.75;13.58;;;;;;;9.10;97.80;99219.25;1679520;83;21579;-41
2021/04/16 01:22:38;;;;;;;16.23;13.48;;;;;;;9.08;97.94;99215.79;1679179;83;21057;-41
2021/04/16 01:25:08;;;;;;;16.87;14.20;;;;;;;9.06;98.12;99218.56;1683500;83;21597;-41
2021/04/16 01:27:37;;;;;;;16.75;14.65;;;;;;;9.03;98.31;99216.50;1688976;83;21706;-41
2021/04/16 01:30:10;;;;;;;19.07;15.08;;;;;;;9.01;98.33;99219.76;1680167;82;21578;-41
2021/04/16 01:32:40;;;;;;;19.35;15.58;;;;;;;8.97;98.42;99219.52;1681334;83;20995;-42
2021/04/16 01:35:13;;;;;;;18.37;14.45;;;;;;;8.92;98.33;99211.69;1680489;83;21212;-42
2021/04/16 01:37:42;;;;;;;22.20;17.48;;;;;;;8.88;98.37;99208.28;1681761;83;21642;-41
2021/04/16 01:40:10;;;;;;;19.77;16.62;;;;;;;8.85;98.50;99208.45;1681694;83;21038;-41
2021/04/16 01:42:39;;;;;;;20.80;16.17;;;;;;;8.82;98.54;99207.25;1681151;83;21441;-50
2021/04/16 01:45:10;;;;;;;19.57;14.65;;;;;;;8.82;98.66;99212.63;1681320;83;21003;-49
2021/04/16 01:47:38;;;;;;;20.57;16.52;;;;;;;8.82;98.72;99207.25;1679157;83;21031;-49
2021/04/16 01:50:07;;;;;;;18.60;15.18;;;;;;;8.82;98.74;99208.60;1687808;82;21138;-49
2021/04/16 01:52:36;;;;;;;20.30;15.05;;;;;;;8.84;98.73;99205.38;1680539;83;21098;-51
2021/04/16 01:55:06;;;;;;;20.97;15.80;;;;;;;8.85;98.78;99203.08;1681118;82;21447;-50
2021/04/16 01:57:35;;;;;;;20.32;15.05;;;;;;;8.85;98.84;99205.77;1681585;83;21134;-50
2021/04/16 02:00:20;;;;;;;19.50;14.85;;;;;;;8.84;98.89;99200.00;1688133;83;21017;-53
2021/04/16 02:02:50;;;;;;;18.07;14.98;;;;;;;8.85;98.95;99200.39;1680535;83;21606;-52
2021/04/16 02:05:18;;;;;;;24.37;16.25;;;;;;;8.83;99.00;99199.58;1688898;83;21141;-51
2021/04/16 02:07:46;;;;;;;24.47;17.98;;;;;;;8.82;99.09;99200.53;1682333;82;21425;-41
2021/04/16 02:10:14;;;;;;;37.78;23.55;;;;;;;8.82;99.13;99202.36;1690054;83;21180;-41
2021/04/16 02:12:42;;;;;;;37.05;22.85;;;;;;;8.80;99.13;99198.41;1690136;83;21168;-42
2021/04/16 02:15:12;;;;;;;40.05;25.90;;;;;;;8.80;99.16;99202.45;1695766;83;21077;-41
2021/04/16 02:17:40;;;;;;;41.68;24.23;;;;;;;8.82;99.09;99204.56;1694252;83;21143;-42
2021/04/16 02:20:14;;;;;;;35.08;22.17;;;;;;;8.81;99.10;99198.80;1690691;82;21289;-42
2021/04/16 02:22:42;;;;;;;36.10;21.45;;;;;;;8.82;98.94;99207.73;1688427;83;21014;-41
2021/04/16 02:25:11;;;;;;;24.37;17.45;;;;;;;8.82;98.94;99207.25;1687423;82;21192;-41
2021/04/16 02:27:40;;;;;;;24.10;15.90;;;;;;;8.83;98.92;99200.06;1689173;83;21120;-42
2021/04/16 02:30:10;;;;;;;20.97;14.33;;;;;;;8.83;98.89;99204.09;1693599;83;20999;-47
2021/04/16 02:32:38;;;;;;;14.80;11.78;;;;;;;8.82;98.74;99204.56;1693767;83;21208;-47
2021/04/16 02:35:09;;;;;;;19.35;12.68;;;;;;;8.77;98.60;99205.28;1694416;83;22236;-46
2021/04/16 02:37:37;;;;;;;12.25;10.53;;;;;;;8.75;98.68;99203.16;1689039;82;21121;-49
2021/04/16 02:40:08;;;;;;;13.98;11.68;;;;;;;8.75;98.73;99209.02;1692799;82;21392;-47
2021/04/16 02:42:36;;;;;;;13.10;10.83;;;;;;;8.74;98.84;99205.45;1687717;83;21144;-47
2021/04/16 02:45:07;;;;;;;14.83;11.50;;;;;;;8.72;98.96;99203.30;1688749;83;21144;-47
2021/04/16 02:47:35;;;;;;;15.50;11.38;;;;;;;8.70;98.99;99200.31;1687240;83;21567;-46
2021/04/16 02:50:06;;;;;;;12.95;10.70;;;;;;;8.68;98.99;99207.09;1690421;83;21590;-48
2021/04/16 02:52:34;;;;;;;14.80;11.65;;;;;;;8.66;99.02;99207.66;1689347;83;21129;-48
2021/04/16 02:55:03;;;;;;;12.98;11.10;;;;;;;8.65;99.16;99204.58;1691243;82;21114;-48
2021/04/16 02:57:31;;;;;;;17.02;12.05;;;;;;;8.64;99.41;99206.88;1679979;83;22267;-48
2021/04/16 02:59:59;;;;;;;14.35;11.68;;;;;;;8.60;99.50;99202.59;1687199;83;21617;-48
2021/04/16 03:02:27;;;;;;;15.40;11.35;;;;;;;8.57;99.53;99202.73;1686782;83;21140;-48
2021/04/16 03:04:55;;;;;;;14.40;11.80;;;;;;;8.56;99.56;99202.34;1688514;82;21132;-48
2021/04/16 03:07:23;;;;;;;14.60;12.15;;;;;;;8.57;99.57;99202.73;1693702;83;21180;-48
2021/04/16 03:09:51;;;;;;;16.15;11.55;;;;;;;8.59;99.53;99208.92;1681399;83;21420;-47
2021/04/16 03:12:20;;;;;;;17.73;13.05;;;;;;;8.56;99.51;99203.69;1680087;83;21063;-48
2021/04/16 03:14:48;;;;;;;13.65;11.73;;;;;;;8.56;99.56;99203.69;1681376;83;21270;-47
2021/04/16 03:17:16;;;;;;;16.50;11.10;;;;;;;8.55;99.65;99201.95;1683364;83;21960;-48
2021/04/16 03:19:44;;;;;;;14.07;11.65;;;;;;;8.55;99.68;99203.30;1680383;83;21022;-48
2021/04/16 03:22:12;;;;;;;14.55;12.15;;;;;;;8.53;99.87;99201.18;1678443;83;22072;-47
2021/04/16 03:24:40;;;;;;;14.63;11.57;;;;;;;8.51;99.91;99197.68;1680103;83;21582;-48
2021/04/16 03:27:09;;;;;;;15.72;10.93;;;;;;;8.50;99.99;99198.63;1679736;83;21129;-48
2021/04/16 03:29:37;;;;;;;14.85;12.07;;;;;;;8.48;100.00;99204.57;1682300;83;21125;-47
2021/04/16 03:32:06;;;;;;;16.37;12.37;;;;;;;8.43;100.00;99203.94;1680898;83;21070;-49
2021/04/16 03:34:34;;;;;;;15.75;13.72;;;;;;;8.39;100.00;99208.10;1683125;83;21469;-47
2021/04/16 03:37:02;;;;;;;16.05;13.70;;;;;;;8.35;100.00;99205.12;1687045;83;21018;-48
2021/04/16 03:39:31;;;;;;;16.48;12.43;;;;;;;8.32;100.00;99207.98;1681265;83;21081;-50
2021/04/16 03:41:59;;;;;;;18.32;13.43;;;;;;;8.30;100.00;99205.83;1681549;83;21196;-48
2021/04/16 03:44:27;;;;;;;17.65;14.80;;;;;;;8.31;100.00;99212.97;1680674;83;21558;-48
2021/04/16 03:46:55;;;;;;;25.15;16.05;;;;;;;8.29;100.00;99210.81;1681692;83;21377;-48
2021/04/16 03:49:24;;;;;;;24.52;18.82;;;;;;;8.27;100.00;99211.38;1685035;83;21161;-48
2021/04/16 03:51:58;;;;;;;26.05;18.70;;;;;;;8.29;100.00;99205.44;1686468;83;21579;-49
2021/04/16 03:54:26;;;;;;;25.57;17.62;;;;;;;8.31;100.00;99213.41;1682307;83;21161;-47
2021/04/16 03:56:55;;;;;;;30.17;19.25;;;;;;;8.32;100.00;99210.67;1682496;82;20982;-48
2021/04/16 03:59:23;;;;;;;21.93;15.72;;;;;;;8.31;100.00;99207.59;1686790;83;21556;-47
2021/04/16 04:01:52;;;;;;;18.42;13.95;;;;;;;8.31;100.00;99212.97;1690670;83;21039;-47
2021/04/16 04:04:21;;;;;;;18.15;13.65;;;;;;;8.29;100.00;99217.53;1681650;83;21196;-48
2021/04/16 04:06:50;;;;;;;19.82;15.43;;;;;;;8.30;100.00;99213.02;1681462;83;21035;-49
2021/04/16 04:09:18;;;;;;;17.67;14.53;;;;;;;8.31;100.00;99225.06;1680959;83;21133;-49
2021/04/16 04:11:47;;;;;;;19.65;15.38;;;;;;;8.29;100.00;99217.53;1685715;83;21344;-49
2021/04/16 04:14:15;;;;;;;16.32;13.68;;;;;;;8.30;100.00;99219.27;1681822;83;21702;-52
2021/04/16 04:16:58;;;;;;;16.35;12.85;;;;;;;8.32;100.00;99216.05;1679792;83;21204;-48
2021/04/16 04:19:28;;;;;;;17.92;13.28;;;;;;;8.35;100.00;99219.91;1682295;82;21188;-48
2021/04/16 04:21:58;;;;;;;17.97;12.90;;;;;;;8.35;100.00;99222.59;1685090;83;21165;-48
2021/04/16 04:24:27;;;;;;;16.90;13.72;;;;;;;8.35;100.00;99217.22;1677067;83;21647;-47
2021/04/16 04:26:55;;;;;;;16.00;12.47;;;;;;;8.36;100.00;99221.70;1680166;83;21144;-48
2021/04/16 04:29:24;;;;;;;14.85;11.95;;;;;;;8.36;100.00;99219.02;1679915;83;21156;-48
2021/04/16 04:31:52;;;;;;;16.32;11.73;;;;;;;8.36;100.00;99214.98;1680875;83;21030;-49
2021/04/16 04:34:25;;;;;;;14.70;11.93;;;;;;;8.38;100.00;99222.97;1680299;83;21142;-48
2021/04/16 04:37:01;;;;;;;16.00;12.28;;;;;;;8.47;100.00;99217.58;1804388;76;22718;-48
2021/04/16 04:39:33;;;;;;;17.85;13.65;;;;;;;8.42;100.00;99227.72;1749705;78;21026;-48
2021/04/16 04:42:01;;;;;;;15.40;12.43;;;;;;;8.39;100.00;99221.53;1742552;81;21194;-48
2021/04/16 04:44:29;;;;;;;18.65;13.22;;;;;;;8.42;100.00;99225.03;1738991;80;21045;-54
2021/04/16 04:46:57;;;;;;;15.38;13.18;;;;;;;8.42;100.00;99230.41;1733848;81;21715;-52
2021/04/16 04:49:26;;;;;;;17.32;13.95;;;;;;;8.40;100.00;99224.61;1736433;81;21455;-51
2021/04/16 04:52:20;;;;;;;13.65;11.03;;;;;;;8.36;100.00;99231.11;1736074;81;21356;-50
2021/04/16 04:54:49;;;;;;;14.68;11.30;;;;;;;8.29;100.00;99225.59;1739270;81;21199;-52
2021/04/16 04:57:18;;;;;;;14.38;10.58;;;;;;;8.18;100.00;99226.59;1740645;80;21021;-50
2021/04/16 04:59:46;;;;;;;18.82;12.73;;;;;;;8.10;100.00;99230.14;1735349;81;21023;-49
2021/04/16 05:02:15;;;;;;;15.05;11.60;;;;;;;8.05;100.00;99225.47;1735208;81;21517;-51
2021/04/16 05:04:43;;;;;;;14.58;11.33;;;;;;;8.00;100.00;99223.47;1738482;80;21127;-52
2021/04/16 05:07:11;;;;;;;15.48;12.13;;;;;;;8.00;100.00;99223.47;1736848;81;22247;-51
2021/04/16 05:09:39;;;;;;;18.80;13.58;;;;;;;7.98;100.00;99219.97;1738522;81;21132;-52
2021/04/16 05:12:09;;;;;;;21.70;13.45;;;;;;;7.96;100.00;99224.56;1734514;80;21115;-50
2021/04/16 05:14:37;;;;;;;17.45;13.20;;;;;;;7.96;100.00;99224.56;1739755;81;21522;-49
2021/04/16 05:17:06;;;;;;;17.98;13.85;;;;;;;7.98;100.00;99220.84;1734804;81;21132;-50
2021/04/16 05:19:34;;;;;;;16.40;12.95;;;;;;;8.00;100.00;99218.97;1734985;81;22343;-48
2021/04/16 05:22:04;;;;;;;20.70;14.47;;;;;;;7.99;100.00;99225.73;1736529;80;21005;-50
2021/04/16 05:24:33;;;;;;;20.92;14.70;;;;;;;7.99;100.00;99224.39;1733096;81;21029;-49
2021/04/16 05:27:11;;;;;;;16.73;13.20;;;;;;;7.99;100.00;99224.39;1739632;80;20974;-51
2021/04/16 05:29:39;;;;;;;17.90;13.88;;;;;;;7.99;100.00;99220.36;1738405;80;20989;-50
2021/04/16 05:32:07;;;;;;;18.07;13.40;;;;;;;7.98;100.00;99217.28;1738246;81;21391;-51
2021/04/16 05:34:36;;;;;;;20.62;14.15;;;;;;;7.99;100.00;99221.70;1736809;80;20998;-49
2021/04/16 05:37:05;;;;;;;16.80;12.85;;;;;;;8.00;100.00;99218.10;1753357;81;21168;-48
2021/04/16 05:39:33;;;;;;;15.72;12.53;;;;;;;7.99;100.00;99221.70;1753674;81;21149;-49
2021/04/16 05:42:01;;;;;;;17.87;13.28;;;;;;;8.00;100.00;99222.13;1749269;80;20986;-50
2021/04/16 05:44:29;;;;;;;22.42;15.03;;;;;;;8.00;100.00;99219.45;1750139;81;21750;-48
2021/04/16 05:46:58;;;;;;;20.45;14.70;;;;;;;8.00;100.00;99218.10;1752356;81;21725;-49
2021/04/16 05:49:28;;;;;;;16.05;12.63;;;;;;;8.02;100.00;99222.91;1747119;81;21203;-50
2021/04/16 05:51:56;;;;;;;15.68;11.55;;;;;;;8.05;100.00;99221.44;1749635;81;20938;-49
2021/04/16 05:54:25;;;;;;;17.90;10.85;;;;;;;8.07;100.00;99220.88;1754747;81;21133;-50
2021/04/16 05:56:53;;;;;;;15.05;10.98;;;;;;;8.04;100.00;99225.03;1748739;81;21375;-48
2021/04/16 05:59:21;;;;;;;12.40;10.00;;;;;;;8.02;100.00;99226.47;1751743;81;21002;-48
2021/04/16 06:01:48;;;;;;;11.65;9.13;;;;;;;8.00;100.00;99228.84;1753163;79;21124;-51
2021/04/16 06:04:19;;;;;;;12.40;9.93;;;;;;;7.99;100.00;99227.08;1751702;79;21495;-49
2021/04/16 06:06:47;;;;;;;10.58;8.90;;;;;;;7.99;100.00;99226.63;1750768;79;21041;-49
2021/04/16 06:09:16;;;;;;;12.03;9.45;;;;;;;8.00;100.00;99227.02;1754496;79;21251;-51
2021/04/16 06:11:46;;;;;;;12.63;9.88;;;;;;;8.00;100.00;99230.19;1754540;81;21654;-52
2021/04/16 06:14:15;;;;;;;14.00;10.95;;;;;;;8.01;100.00;99225.20;1750907;79;21155;-52
2021/04/16 06:16:45;;;;;;;12.53;9.93;;;;;;;8.02;100.00;99232.31;1759606;79;21141;-50
2021/04/16 06:19:13;;;;;;;21.85;14.43;;;;;;;8.02;100.00;99229.63;1756129;79;21570;-51
2021/04/16 06:21:41;;;;;;;17.57;12.82;;;;;;;8.03;100.00;99232.23;1750298;79;22276;-50
2021/04/16 06:24:09;;;;;;;19.92;13.05;;;;;;;8.06;100.00;99232.56;1753066;81;21053;-49
2021/04/16 06:26:38;;;;;;;18.37;13.00;;;;;;;8.06;100.00;99234.78;1750519;79;21146;-51
2021/04/16 06:29:06;;;;;;;22.52;13.22;;;;;;;8.08;100.00;99234.70;1735979;81;21202;-50
2021/04/16 06:31:34;;;;;;;16.45;13.28;;;;;;;8.07;100.00;99235.65;1750908;81;21112;-51
2021/04/16 06:34:03;;;;;;;17.95;14.25;;;;;;;8.06;100.00;99237.47;1755020;79;21366;-49
2021/04/16 06:36:31;;;;;;;17.42;13.55;;;;;;;8.05;100.00;99236.20;1755177;79;21590;-50
2021/04/16 06:38:58;;;;;;;20.85;14.15;;;;;;;8.03;100.00;99239.42;1760825;79;21018;-57
2021/04/16 06:41:30;;;;;;;19.73;14.95;;;;;;;8.02;100.00;99245.73;1762656;80;21339;-52
2021/04/16 06:44:06;;;;;;;19.50;14.03;;;;;;;7.99;100.00;99246.77;1757120;79;21111;-50
2021/04/16 06:46:40;;;;;;;21.30;14.83;;;;;;;7.99;100.00;99247.21;1763427;80;21826;-51
2021/04/16 06:49:23;;;;;;;18.40;14.30;;;;;;;7.97;100.00;99245.09;1760158;79;21188;-51
2021/04/16 06:52:17;;;;;;;19.67;14.78;;;;;;;7.96;100.00;99246.03;1747972;80;21108;-50
2021/04/16 06:55:14;;;;;;;23.42;17.62;;;;;;;7.97;100.00;99247.77;1761402;79;21005;-51
2021/04/16 06:57:55;;;;;;;20.45;15.83;;;;;;;8.01;100.00;99251.58;1762736;79;21156;-52
2021/04/16 07:00:51;;;;;;;19.92;15.15;;;;;;;8.04;100.00;99249.20;1765349;79;21332;-51
2021/04/16 07:03:33;;;;;;;21.65;16.15;;;;;;;8.07;100.00;99258.00;1758581;80;21128;-52
2021/04/16 07:06:27;;;;;;;22.00;16.52;;;;;;;8.07;100.00;99253.10;1756846;79;21120;-50
2021/04/16 07:09:09;;;;;;;20.72;16.62;;;;;;;8.05;100.00;99257.69;1745007;80;21889;-52
2021/04/16 07:11:43;;;;;;;21.55;13.88;;;;;;;8.09;100.00;99259.25;1758731;79;20970;-52
2021/04/16 07:14:33;;;;;;;19.73;15.23;;;;;;;8.10;100.00;99262.37;1719322;80;22093;-52
2021/04/16 07:17:03;;;;;;;;;;;;;;;8.09;100.00;99255.23;1704928;83;21011;-51
2021/04/16 07:19:32;;;;;;;20.20;14.55;;;;;;;8.10;100.00;99257.86;1704026;83;20568;-52
2021/04/16 07:22:03;;;;;;;23.67;16.40;;;;;;;8.11;100.00;99261.42;1705558;81;21599;-51
2021/04/16 07:24:32;;;;;;;19.65;14.78;;;;;;;8.11;100.00;99256.91;1706071;81;21228;-51
2021/04/16 07:27:23;;;;;;;17.82;13.72;;;;;;;8.13;100.00;99268.44;1705519;81;21380;-52
2021/04/16 07:29:54;;;;;;;17.57;14.50;;;;;;;8.14;100.00;99267.48;1703481;81;21181;-52
2021/04/16 07:32:35;;;;;;;16.77;13.62;;;;;;;8.13;100.00;99263.07;1702343;81;21161;-50
2021/04/16 07:35:21;;;;;;;18.07;13.15;;;;;;;8.17;100.00;99269.17;1703559;81;21722;-51
2021/04/16 07:38:03;;;;;;;21.82;14.60;;;;;;;8.23;100.00;99267.53;1696529;83;21509;-51
2021/04/16 07:40:37;;;;;;;19.55;14.58;;;;;;;8.23;100.00;99274.72;1694147;83;21417;-52
2021/04/16 07:43:06;;;;;;;20.45;14.38;;;;;;;8.24;100.00;99273.30;1692515;81;21056;-51
2021/04/16 07:45:41;;;;;;;19.27;14.15;;;;;;;8.26;100.00;99273.24;1697544;81;21755;-51
2021/04/16 07:48:20;;;;;;;16.00;13.98;;;;;;;8.27;100.00;99273.16;1696161;81;21108;-50
2021/04/16 07:50:58;;;;;;;18.55;15.50;;;;;;;8.34;100.00;99273.73;1758380;77;38274;-51
2021/04/16 07:53:42;;;;;;;19.90;14.53;;;;;;;8.33;100.00;99280.05;1767115;79;20977;-52
2021/04/16 07:56:21;;;;;;;18.37;14.23;;;;;;;8.37;100.00;99279.86;1744913;80;21262;-50
2021/04/16 08:01:47;;;;;;;24.35;18.05;;;;;;;8.53;100.00;99281.80;1851650;76;27937;-51
2021/04/16 08:04:33;;;;;;;16.87;13.13;;;;;;;8.52;100.00;99282.72;1852206;75;21622;-51
2021/04/16 08:07:19;;;;;;;17.07;13.28;;;;;;;8.52;100.00;99277.34;1847607;75;21308;-53
2021/04/16 08:09:47;;;;;;;23.27;17.40;;;;;;;8.51;100.00;99286.36;1843434;75;20981;-52
2021/04/16 08:12:17;;;;;;;21.82;16.52;;;;;;;8.48;100.00;99286.53;1847992;75;21609;-51
2021/04/16 08:14:46;;;;;;;21.35;16.20;;;;;;;8.49;100.00;99282.41;1842157;75;21000;-51
2021/04/16 08:17:29;;;;;;;20.97;14.90;;;;;;;8.51;100.00;99280.98;1846416;75;20946;-52
2021/04/16 08:20:28;;;;;;;21.55;14.53;;;;;;;8.60;100.00;99283.23;1842672;75;22666;-53
2021/04/16 08:22:59;;;;;;;17.02;13.85;;;;;;;8.54;100.00;99275.00;1822108;77;21485;-51
2021/04/16 08:25:40;;;;;;;22.42;15.00;;;;;;;8.56;100.00;99273.56;1755784;79;21339;-53
2021/04/16 08:28:11;;;;;;;;;;;;;;;8.58;100.00;99274.38;1785994;78;21197;-52
2021/04/16 08:30:53;;;;;;;17.05;13.95;;;;;;;8.61;100.00;99276.90;1761191;79;20224;-52
2021/04/16 08:33:40;;;;;;;17.40;13.75;;;;;;;8.64;100.00;99274.94;1755623;80;20971;-52
2021/04/16 08:36:35;;;;;;;16.20;14.50;;;;;;;8.66;100.00;99280.23;1754500;80;21283;-53
2021/04/16 08:39:40;;;;;;;17.87;14.87;;;;;;;8.66;100.00;99277.54;1756901;80;21253;-50
2021/04/16 08:42:13;;;;;;;20.65;14.78;;;;;;;8.70;100.00;99284.51;1758341;80;21035;-52
2021/04/16 08:44:55;;;;;;;17.57;14.45;;;;;;;8.77;100.00;99277.86;1801466;77;22845;-52
2021/04/16 08:47:35;;;;;;;22.22;17.10;;;;;;;8.75;100.00;99282.47;1771797;80;21656;-51
2021/04/16 08:50:11;;;;;;;19.02;15.13;;;;;;;8.81;100.00;99282.16;1836551;75;22806;-51
2021/04/16 08:52:51;;;;;;;24.00;18.85;;;;;;;8.81;100.00;99281.28;1819334;77;21534;-52
2021/04/16 08:55:36;;;;;;;21.75;16.45;;;;;;;8.82;100.00;99286.58;1823013;77;21381;-52
2021/04/16 08:58:28;;;;;;;21.07;16.35;;;;;;;8.82;100.00;99290.61;1822385;77;21089;-52
2021/04/16 09:01:10;;;;;;;19.37;15.90;;;;;;;8.80;100.00;99291.17;1822687;77;20948;-53
2021/04/16 09:03:49;;;;;;;20.40;16.52;;;;;;;8.79;100.00;99294.81;1821424;77;21649;-51
2021/04/16 09:06:39;;;;;;;22.65;17.40;;;;;;;8.79;100.00;99293.47;1824479;77;20983;-52
2021/04/16 09:09:14;;;;;;;22.82;17.75;;;;;;;8.82;100.00;99287.91;1820186;77;21331;-52
2021/04/16 09:11:48;;;;;;;25.77;19.82;;;;;;;8.90;100.00;99294.27;1824086;77;21652;-56
2021/04/16 09:14:27;;;;;;;25.72;20.02;;;;;;;8.93;100.00;99292.27;1824972;77;20983;-54
2021/04/16 09:17:01;;;;;;;29.30;19.37;;;;;;;8.98;100.00;99294.73;1824932;77;21001;-54
2021/04/16 09:19:36;;;;;;;27.05;21.35;;;;;;;9.01;100.00;99296.41;1824661;77;21177;-54
2021/04/16 09:22:12;;;;;;;38.23;26.45;;;;;;;9.01;100.00;99293.72;1820945;77;22270;-54
2021/04/16 09:24:59;;;;;;;31.62;22.22;;;;;;;9.00;100.00;99289.27;1822718;77;21133;-54
2021/04/16 09:27:35;;;;;;;31.00;21.82;;;;;;;9.01;100.00;99291.90;1824552;77;21598;-53
2021/04/16 09:30:09;;;;;;;27.58;21.23;;;;;;;9.03;100.00;99297.19;1823619;77;21088;-57
2021/04/16 09:32:52;;;;;;;27.70;20.85;;;;;;;9.05;100.00;99291.25;1824516;77;21102;-51
2021/04/16 09:35:32;;;;;;;27.50;20.88;;;;;;;9.10;100.00;99293.23;1786648;78;22136;-51
2021/04/16 09:38:26;;;;;;;26.82;20.70;;;;;;;9.13;100.00;99295.77;1786808;79;21568;-53
2021/04/16 09:41:25;;;;;;;27.98;22.52;;;;;;;9.12;100.00;99304.80;1787196;78;21157;-55
2021/04/16 09:43:55;;;;;;;25.10;19.70;;;;;;;9.09;100.00;99300.91;1787250;79;21516;-53
2021/04/16 09:46:37;;;;;;;23.98;20.05;;;;;;;9.04;100.00;99293.55;1788800;78;21529;-52
2021/04/16 09:49:09;;;;;;;27.50;21.40;;;;;;;9.01;100.00;99293.72;1788944;79;21144;-51
2021/04/16 09:51:45;;;;;;;26.90;20.77;;;;;;;9.01;100.00;99299.97;1772067;78;21232;-52
2021/04/16 09:54:25;;;;;;;27.52;20.20;;;;;;;9.03;100.00;99299.88;1787243;78;21493;-52
2021/04/16 09:57:08;;;;;;;27.52;19.98;;;;;;;9.06;100.00;99300.60;1787446;78;20975;-52
2021/04/16 09:59:42;;;;;;;34.73;24.85;;;;;;;9.08;100.00;99297.83;1786442;79;21109;-52
2021/04/16 10:02:35;;;;;;;28.52;22.55;;;;;;;9.13;100.00;99295.77;1808797;78;22791;-53
2021/04/16 10:05:09;;;;;;;26.45;21.62;;;;;;;9.11;100.00;99297.69;1781816;77;21116;-51
2021/04/16 10:08:05;;;;;;;27.67;20.97;;;;;;;9.19;100.00;99303.52;1821693;77;22726;-51
2021/04/16 10:10:42;;;;;;;27.22;21.33;;;;;;;9.12;100.00;99300.77;1776803;79;21007;-53
2021/04/16 10:13:24;;;;;;;30.70;22.62;;;;;;;9.11;100.00;99301.72;1744768;81;21370;-52
2021/04/16 10:15:54;;;;;;;25.72;21.65;;;;;;;9.09;100.00;99296.88;1716498;83;20964;-52
2021/04/16 10:18:36;;;;;;;30.20;23.05;;;;;;;9.06;100.00;99303.30;1718294;81;21014;-53
2021/04/16 10:21:21;;;;;;;24.18;20.20;;;;;;;9.01;100.00;99299.97;1744492;82;20978;-51
2021/04/16 11:00:28;;;;;;;;;;;;;;;9.04;100.00;99317.75;1770216;78;21237;-52
2021/04/16 12:38:39;;;;;;;29.55;22.40;;;;;;;9.82;100.00;99319.05;1729790;81;22022;-54
2021/04/16 12:41:17;;;;;;;23.12;20.62;;;;;;;9.81;100.00;99318.17;1719746;82;21034;-53
2021/04/16 12:43:53;;;;;;;23.92;20.32;;;;;;;9.85;100.00;99321.07;1844038;75;22789;-55
2021/04/16 12:46:25;;;;;;;22.73;20.15;;;;;;;9.82;100.00;99320.39;1786001;77;21013;-53
2021/04/16 12:49:02;;;;;;;22.77;19.73;;;;;;;9.86;100.00;99320.14;1795465;78;23451;-51
2021/04/16 12:51:32;;;;;;;21.30;19.02;;;;;;;9.82;100.00;99322.60;1756583;79;20973;-52
2021/04/16 12:53:59;;;;;;;21.87;19.07;;;;;;;9.83;100.00;99320.30;1751808;79;21368;-52
2021/04/16 12:56:40;;;;;;;23.62;18.57;;;;;;;9.82;100.00;99311.83;1753590;79;21006;-53
2021/04/16 12:59:13;;;;;;;28.45;21.93;;;;;;;9.83;99.95;99317.60;1745578;79;21049;-51
2021/04/16 13:01:43;;;;;;;25.60;21.10;;;;;;;9.85;99.96;99317.03;1752445;79;20986;-56
2021/04/16 13:04:12;;;;;;;21.33;17.98;;;;;;;9.89;100.00;99319.95;1725503;80;20978;-53
2021/04/16 13:06:43;;;;;;;20.52;16.48;;;;;;;9.94;100.00;99312.50;1741831;80;21210;-51
2021/04/16 13:09:12;;;;;;;20.85;16.87;;;;;;;9.96;100.00;99322.73;1751430;79;21050;-51
2021/04/16 13:11:42;;;;;;;22.27;18.40;;;;;;;9.96;100.00;99322.73;1752900;79;21581;-50
2021/04/16 13:14:10;;;;;;;21.45;18.50;;;;;;;9.94;99.20;99325.97;1751204;79;21210;-52
2021/04/16 13:16:38;;;;;;;23.18;20.60;;;;;;;9.93;98.60;99314.80;1721754;80;21124;-50
2021/04/16 13:19:09;;;;;;;25.37;20.70;;;;;;;9.93;98.60;99314.80;1721374;80;21370;-52
2021/04/16 13:21:40;;;;;;;20.90;18.05;;;;;;;9.95;98.79;99319.62;1752397;79;21582;-52
2021/04/16 13:24:09;;;;;;;23.02;18.45;;;;;;;9.95;97.86;99316.92;1759749;79;21132;-51
2021/04/16 13:26:37;;;;;;;20.85;18.65;;;;;;;9.95;97.86;99316.92;1753168;79;21133;-50
2021/04/16 13:29:05;;;;;;;23.65;18.10;;;;;;;9.95;97.48;99320.97;1749238;79;20978;-52
2021/04/16 13:31:35;;;;;;;18.73;16.62;;;;;;;9.96;97.31;99316.00;1750165;79;21470;-52
2021/04/16 13:34:04;;;;;;;19.50;16.82;;;;;;;9.92;96.56;99315.77;1752364;79;20990;-52
2021/04/16 13:36:34;;;;;;;22.10;17.50;;;;;;;9.91;95.90;99322.11;1757992;79;21022;-52
2021/04/16 13:39:03;;;;;;;20.72;17.87;;;;;;;9.88;96.72;99321.40;1756617;79;21112;-52
2021/04/16 13:41:34;;;;;;;22.15;18.73;;;;;;;9.87;96.64;99316.49;1753375;79;21192;-53
2021/04/16 13:44:03;;;;;;;22.02;18.92;;;;;;;9.87;96.64;99316.49;1759655;79;21413;-51
2021/04/16 13:46:33;;;;;;;21.77;16.65;;;;;;;9.89;96.70;99318.61;1754963;79;21528;-52
2021/04/16 13:49:03;;;;;;;22.42;18.05;;;;;;;9.85;97.04;99311.64;1755395;79;21116;-54
2021/04/16 13:51:34;;;;;;;26.17;19.35;;;;;;;9.85;97.04;99311.64;1755491;79;21067;-50
2021/04/16 13:54:06;;;;;;;21.95;18.48;;;;;;;9.86;97.29;99313.41;1757025;79;21186;-52
2021/04/16 13:56:34;;;;;;;21.02;17.80;;;;;;;9.84;97.33;99315.30;1763045;79;21373;-53
2021/04/16 13:59:02;;;;;;;25.90;19.42;;;;;;;9.83;97.41;99325.69;1764411;79;20982;-53
2021/04/16 14:01:30;;;;;;;23.32;19.42;;;;;;;9.82;97.63;99326.64;1767906;79;21025;-52
2021/04/16 14:04:05;;;;;;;25.10;19.62;;;;;;;9.79;98.49;99320.06;1764733;79;21128;-51
2021/04/16 14:06:39;;;;;;;29.87;20.17;;;;;;;9.79;98.49;99320.06;1764838;79;21525;-51